Terminal Aerodrome Forecast
Issued by NWS Mt. Holly, NJ

Home | Current Version | Previous Version | Text Only | Print | Product List | Glossary On
Versions: 1 2 3 4 5 6 7 8 9 10 11 12 13 14 15 16 17 18 19 20 21 22
893
FTUS41 KPHI 160123 AAD
TAFRDG
TAF AMD
KRDG 160123Z 1601/1624 VRB03KT P6SM OVC015
      TEMPO 1602/1604 SCT015 BKN050
     FM160400 24006KT P6SM SCT050
     FM161600 24010G18KT P6SM BKN040
     FM162300 30006KT P6SM SCT040=

USA.gov is the U.S. government's official web portal to all federal, state and local government web resources and services.